Northview High School FL US WEATHERSTEM current weather conditions

sailwx.info

Wind from 080 at 1 knots gusting 3

Air temperature 24.9° C
Dewpoint 22.6° C

Last reported at 2020-Aug-05 13:00 UTC.
Time now 2020-Aug-05 13:29 UTC

Location: N 30°58' W 087°24'.
View on Google Maps.

See reports from other nearby stations

  
Tides and Currents Weather Stations Pressure Air Temp Water Temp Dewpoint Dewpoint Depression Visibility Wind Speed Wind Dir Waves Ship Positions
date/time (UTC)wind fromknots sea level pressurealtimeterstation pressurevisibilityair tempwater tempwave heightnotes
2020-Aug-05 13:00 080 1 gusting 3 24.9
2020-Aug-05 12:50 078 1 gusting 1 24.5
2020-Aug-05 12:40 24.2
2020-Aug-05 12:30 23.6
2020-Aug-05 12:20 23.3
2020-Aug-05 12:10 23.1
2020-Aug-05 12:00 22.3
2020-Aug-05 11:50 22.1
2020-Aug-05 11:40 22.1
2020-Aug-05 11:30 22.3
2020-Aug-05 11:10 22.2
2020-Aug-05 11:00 22.3
2020-Aug-05 10:50 22.3
2020-Aug-05 10:40 22.4
2020-Aug-05 10:30 22.2
2020-Aug-05 10:20 22.1
2020-Aug-05 10:10 22.3
2020-Aug-05 10:00 22.7
2020-Aug-05 09:50 22.7
2020-Aug-05 09:40 22.9
2020-Aug-05 09:30 23.1
2020-Aug-05 09:20 22.9
2020-Aug-05 09:10 23.1
2020-Aug-05 09:00 23.2
2020-Aug-05 08:50 23.2
2020-Aug-05 08:40 23.2
2020-Aug-05 08:30 23.1
2020-Aug-05 08:20 23.1
2020-Aug-05 08:10 23.5
2020-Aug-05 08:00 23.1
2020-Aug-05 07:50 017 2 gusting 4 23.2
2020-Aug-05 07:40 23.4
2020-Aug-05 07:30 023 3 gusting 3 23.4
2020-Aug-05 07:20 098 0 gusting 2 23.6
2020-Aug-05 07:10 096 1 gusting 3 23.5
2020-Aug-05 07:00 019 1 gusting 4 23.3
2020-Aug-05 06:50 022 3 gusting 3 23.2
2020-Aug-05 06:40 23.8
2020-Aug-05 06:30 23.9
2020-Aug-05 06:20 24.2
2020-Aug-05 06:00 163 1 gusting 4 24.3
2020-Aug-05 05:50 187 0 gusting 1 24.6
2020-Aug-05 05:40 187 1 gusting 2 24.8
2020-Aug-05 05:30 187 0 gusting 2 25.4
2020-Aug-05 05:20 187 0 gusting 2 25.5
2020-Aug-05 05:10 213 0 gusting 3 25.6
2020-Aug-05 05:00 215 3 gusting 3 25.7
2020-Aug-05 04:50 209 2 gusting 3 25.8
2020-Aug-05 04:40 212 2 gusting 3 25.9
2020-Aug-05 04:30 198 2 gusting 4 26.1
2020-Aug-05 04:20 223 4 gusting 5 26.2
2020-Aug-05 04:00 218 2 gusting 4 26.3
2020-Aug-05 03:50 215 4 gusting 5 26.4
2020-Aug-05 03:40 216 3 gusting 5 26.3
2020-Aug-05 03:30 207 3 gusting 5 26.4
2020-Aug-05 03:10 215 2 gusting 5 26.6
2020-Aug-05 03:00 218 3 gusting 4 26.7
2020-Aug-05 02:50 220 2 gusting 6 26.8
2020-Aug-05 02:40 220 4 gusting 6 27.0
2020-Aug-05 02:30 214 2 gusting 5 27.2
2020-Aug-05 02:20 207 2 gusting 5 27.2
2020-Aug-05 02:10 207 3 gusting 6 27.3
2020-Aug-05 01:50 217 3 gusting 6 27.6
2020-Aug-05 01:40 217 5 gusting 6 27.9
2020-Aug-05 01:30 230 6 gusting 6 28.1
2020-Aug-05 01:20 225 5 gusting 6 28.2
2020-Aug-05 01:00 225 6 gusting 8 28.7
2020-Aug-05 00:50 222 6 gusting 8 28.9
2020-Aug-05 00:40 206 5 gusting 7 29.3
2020-Aug-05 00:30 207 5 gusting 8 30.1
2020-Aug-05 00:20 221 5 gusting 8 30.3
2020-Aug-05 00:10 259 1 gusting 3 31.2
2020-Aug-05 00:00 288 2 gusting 4 31.7
2020-Aug-04 23:50 286 3 gusting 3 31.9
2020-Aug-04 23:40 273 2 gusting 5 31.9
2020-Aug-04 23:30 229 1 gusting 6 32.1
2020-Aug-04 23:20 219 4 gusting 7 32.2
2020-Aug-04 23:00 262 3 gusting 9 32.4
2020-Aug-04 22:40 244 6 gusting 6 32.6
2020-Aug-04 22:30 259 6 gusting 10 32.7
2020-Aug-04 22:20 279 6 gusting 8 32.7
2020-Aug-04 22:00 267 3 gusting 8 32.8
2020-Aug-04 21:40 259 6 gusting 7 32.8
2020-Aug-04 21:30 291 4 gusting 9 32.8
2020-Aug-04 21:20 232 3 gusting 7 32.8
2020-Aug-04 21:10 269 6 gusting 7 32.8
2020-Aug-04 21:00 245 3 gusting 6 32.6
2020-Aug-04 20:50 157 1 gusting 7 32.6
2020-Aug-04 20:40 300 1 gusting 10 33.1
2020-Aug-04 20:30 242 1 gusting 3 33.4
2020-Aug-04 20:10 327 3 gusting 6 33.2
2020-Aug-04 20:00 279 7 gusting 9 32.6
2020-Aug-04 19:50 296 6 gusting 9 32.7
2020-Aug-04 19:40 269 5 gusting 9 32.3
2020-Aug-04 19:30 275 5 gusting 8 32.6
2020-Aug-04 19:20 232 6 gusting 10 32.7
2020-Aug-04 19:10 255 8 gusting 11 32.4
2020-Aug-04 19:00 253 3 gusting 6 31.7
2020-Aug-04 18:50 203 2 gusting 2 31.5
2020-Aug-04 18:40 184 0 gusting 6 31.4
2020-Aug-04 18:30 211 4 gusting 5 32.2
2020-Aug-04 18:20 237 4 gusting 6 31.7
2020-Aug-04 18:10 279 0 gusting 6 31.8
2020-Aug-04 18:00 340 5 gusting 7 32.4
2020-Aug-04 17:50 267 6 gusting 7 31.7
2020-Aug-04 17:40 308 2 gusting 7 32.0
2020-Aug-04 17:30 138 4 gusting 6 31.3
2020-Aug-04 17:20 258 1 gusting 6 31.0
2020-Aug-04 17:10 235 3 gusting 7 31.6
2020-Aug-04 17:00 333 2 gusting 7 31.2
2020-Aug-04 16:50 346 2 gusting 5 31.7
2020-Aug-04 16:30 239 1 gusting 5 30.8
2020-Aug-04 16:20 249 4 gusting 7 30.8
2020-Aug-04 16:10 235 2 gusting 7 31.2
2020-Aug-04 16:00 306 7 gusting 9 31.4
2020-Aug-04 15:50 296 6 gusting 7 30.6
2020-Aug-04 15:40 264 5 gusting 7 30.2
2020-Aug-04 15:30 231 0 gusting 6 30.5
2020-Aug-04 15:20 309 3 gusting 6 30.6
2020-Aug-04 15:10 302 4 gusting 6 29.8
2020-Aug-04 15:00 246 2 gusting 6 29.4
2020-Aug-04 14:50 276 1 gusting 6 29.3
2020-Aug-04 14:40 310 6 gusting 6 29.5
2020-Aug-04 14:30 242 1 gusting 5 29.0
2020-Aug-04 14:20 315 3 gusting 5 28.9
2020-Aug-04 14:10 289 6 gusting 6 29.2
2020-Aug-04 14:00 336 2 gusting 4 29.0
2020-Aug-04 13:50 279 2 gusting 2 28.1
2020-Aug-04 13:40 28.3
2020-Aug-04 13:30 27.7
2020-Aug-04 13:20 321 1 gusting 4 27.1
2020-Aug-04 13:10 320 2 gusting 4 26.4
2020-Aug-04 13:00 304 1 gusting 3 26.1
2020-Aug-04 12:50 303 2 gusting 3 25.6
2020-Aug-04 12:20 24.1
2020-Aug-04 12:10 23.4
2020-Aug-04 12:00 23.1
2020-Aug-04 11:50 22.7
2020-Aug-04 11:30 21.9
2020-Aug-04 11:20 22.1
2020-Aug-04 11:10 22.5
2020-Aug-04 11:00 22.3
2020-Aug-04 10:50 22.3
2020-Aug-04 10:40 22.6
2020-Aug-04 10:30 22.2
2020-Aug-04 10:20 22.3
2020-Aug-04 10:10 22.4
2020-Aug-04 10:00 22.8
2020-Aug-04 09:50 22.9
2020-Aug-04 09:40 23.1
2020-Aug-04 09:30 22.8
2020-Aug-04 09:20 23.3
2020-Aug-04 09:10 23.2
2020-Aug-04 09:00 23.2
2020-Aug-04 08:50 23.1
2020-Aug-04 08:40 22.9
2020-Aug-04 08:30 23.6
2020-Aug-04 08:10 23.8
2020-Aug-04 08:00 265 0 gusting 2 24.3
2020-Aug-04 07:50 265 1 gusting 2 24.2
2020-Aug-04 07:40 24.2
2020-Aug-04 07:30 24.5
2020-Aug-04 07:20 24.4
2020-Aug-04 07:00 272 2 gusting 2 24.4
2020-Aug-04 06:40 24.6
2020-Aug-04 06:20 24.7
2020-Aug-04 06:10 24.8
2020-Aug-04 06:00 24.8
2020-Aug-04 05:50 24.8
2020-Aug-04 05:40 271 1 gusting 1 24.8
2020-Aug-04 05:30 24.9
2020-Aug-04 05:10 274 2 gusting 3 25.2
2020-Aug-04 05:00 274 1 gusting 3 25.2
2020-Aug-04 04:50 271 2 gusting 2 24.9
2020-Aug-04 04:40 273 1 gusting 2 24.1
2020-Aug-04 04:30 272 0 gusting 3 24.2
2020-Aug-04 04:20 24.3
2020-Aug-04 04:10 25.3
2020-Aug-04 04:00 25.6
2020-Aug-04 03:50 25.7
2020-Aug-04 03:40 26.1
2020-Aug-04 03:30 26.4
2020-Aug-04 03:20 26.2
2020-Aug-04 03:00 26.4
2020-Aug-04 02:50 324 0 gusting 1 26.4
2020-Aug-04 02:40 324 0 gusting 1 26.5
2020-Aug-04 02:30 324 0 gusting 1 26.5
2020-Aug-04 02:20 324 1 gusting 2 26.7
2020-Aug-04 02:10 324 0 gusting 1 27.2
2020-Aug-04 02:00 324 0 gusting 1 27.4
2020-Aug-04 01:50 324 1 gusting 1 27.7
2020-Aug-04 01:40 27.4
2020-Aug-04 01:30 324 0 gusting 2 27.9
2020-Aug-04 01:20 324 2 gusting 2 28.2
2020-Aug-04 01:10 326 2 gusting 2 28.3
2020-Aug-04 01:00 326 1 gusting 3 28.6
2020-Aug-04 00:50 326 3 gusting 5 29.1
2020-Aug-04 00:40 321 4 gusting 5 29.4
2020-Aug-04 00:30 317 3 gusting 4 29.7
2020-Aug-04 00:20 321 3 gusting 4 30.1
2020-Aug-04 00:10 298 2 gusting 5 30.5
2020-Aug-04 00:00 345 3 gusting 5 30.8
2020-Aug-03 23:50 347 3 gusting 6 30.9
2020-Aug-03 23:40 027 1 gusting 3 31.1
2020-Aug-03 23:30 350 2 gusting 4 30.4
2020-Aug-03 23:20 017 3 gusting 6 30.4
2020-Aug-03 23:10 355 2 gusting 5 30.6
2020-Aug-03 22:50 323 3 gusting 4 30.4
2020-Aug-03 22:40 344 4 gusting 9 30.9
2020-Aug-03 22:30 344 4 gusting 10 31.6
2020-Aug-03 22:20 009 3 gusting 10 31.8
2020-Aug-03 22:10 344 6 gusting 10 31.4
2020-Aug-03 22:00 334 8 gusting 13 31.8
2020-Aug-03 21:40 315 6 gusting 11 31.3
2020-Aug-03 21:30 302 3 gusting 13 31.5
2020-Aug-03 21:20 325 8 gusting 13 32.3
2020-Aug-03 21:10 264 9 gusting 10 32.6
2020-Aug-03 21:00 312 6 gusting 7 32.4
2020-Aug-03 20:50 321 5 gusting 10 33.0
2020-Aug-03 20:40 326 5 gusting 13 33.0
2020-Aug-03 20:30 345 1 gusting 11 33.0
2020-Aug-03 20:20 342 6 gusting 11 33.3
2020-Aug-03 20:10 338 7 gusting 10 33.1
2020-Aug-03 20:00 321 6 gusting 10 33.0
2020-Aug-03 19:50 334 2 gusting 12 33.1
2020-Aug-03 19:40 291 3 gusting 10 32.6
2020-Aug-03 19:30 325 9 gusting 11 32.6
2020-Aug-03 19:20 340 7 gusting 10 32.7
2020-Aug-03 19:10 319 6 gusting 10 32.6
2020-Aug-03 19:00 345 7 gusting 10 32.4
2020-Aug-03 18:50 315 7 gusting 10 32.4
2020-Aug-03 18:40 320 7 gusting 11 32.3
2020-Aug-03 18:30 345 2 gusting 7 32.3
2020-Aug-03 18:20 345 5 gusting 8 31.8
2020-Aug-03 18:10 251 6 gusting 11 31.4
2020-Aug-03 18:00 355 4 gusting 9 31.5
2020-Aug-03 17:50 256 6 gusting 11 31.4
2020-Aug-03 17:40 313 6 gusting 9 31.5
2020-Aug-03 17:30 326 4 gusting 7 31.4
2020-Aug-03 17:20 036 2 gusting 9 31.7
2020-Aug-03 17:10 305 3 gusting 10 31.7
2020-Aug-03 17:00 288 6 gusting 11 31.4
2020-Aug-03 16:50 319 7 gusting 10 31.3
2020-Aug-03 16:40 300 6 gusting 8 31.3
2020-Aug-03 16:30 320 5 gusting 8 30.9
2020-Aug-03 16:20 269 3 gusting 8 30.3
2020-Aug-03 16:10 326 4 gusting 6 30.3
2020-Aug-03 16:00 329 5 gusting 8 30.4
2020-Aug-03 15:50 360 5 gusting 8 30.3
2020-Aug-03 15:40 336 3 gusting 8 30.7
2020-Aug-03 15:30 360 6 gusting 9 30.4
2020-Aug-03 15:20 311 3 gusting 8 29.7
2020-Aug-03 15:10 331 2 gusting 9 29.6
2020-Aug-03 15:00 326 7 gusting 9 29.1
2020-Aug-03 14:50 295 4 gusting 8 28.8
2020-Aug-03 14:40 343 5 gusting 8 28.3
2020-Aug-03 14:30 328 5 gusting 9 27.8
2020-Aug-03 14:20 307 2 gusting 5 27.3
2020-Aug-03 14:10 309 4 gusting 6 27.4
2020-Aug-03 14:00 333 2 gusting 4 27.4
2020-Aug-03 13:50 293 2 gusting 4 26.6
2020-Aug-03 13:30 306 1 gusting 5 26.1
2020-Aug-03 13:20 303 4 gusting 7 25.5
2020-Aug-03 13:10 302 4 gusting 7 25.6
2020-Aug-03 13:00 292 3 gusting 6 25.3